Time;durP1;ratioP1;P1;durP2;ratioP2;P2;SDS_P1;SDS_P2;PMS_P1;PMS_P2;Temp;Humidity;BMP_temperature;BMP_pressure;BME280_temperature;BME280_humidity;BME280_pressure;Samples;Min_cycle;Max_cycle;Signal;HPM_P1;HPM_P2
2022/08/16 00:01:38;;;;;;;12.40;8.70;;;23.10;90.90;;;;;;5052049;28;20114;-57
2022/08/16 00:04:06;;;;;;;10.93;8.75;;;23.10;91.20;;;;;;5050990;28;20076;-57
2022/08/16 00:06:34;;;;;;;13.38;10.23;;;23.10;90.60;;;;;;5035144;28;20132;-57
2022/08/16 00:09:01;;;;;;;11.45;9.80;;;23.10;91.30;;;;;;5052583;28;20399;-54
2022/08/16 00:11:27;;;;;;;13.82;8.73;;;23.00;91.20;;;;;;5034966;28;20139;-57
2022/08/16 00:13:54;;;;;;;10.43;8.18;;;23.00;91.50;;;;;;5034669;28;20144;-57
2022/08/16 00:16:21;;;;;;;10.60;8.63;;;23.00;91.30;;;;;;5052718;28;20100;-57
2022/08/16 00:18:49;;;;;;;12.73;9.88;;;23.00;91.50;;;;;;5034086;28;20088;-54
2022/08/16 00:21:17;;;;;;;19.20;13.48;;;23.00;91.70;;;;;;5052549;28;20056;-56
2022/08/16 00:23:44;;;;;;;13.88;10.52;;;23.00;92.60;;;;;;5033918;28;20139;-56
2022/08/16 00:26:10;;;;;;;13.30;11.88;;;22.90;92.60;;;;;;5052351;28;20102;-55
2022/08/16 00:28:37;;;;;;;13.18;11.20;;;22.90;92.80;;;;;;5033930;28;20124;-55
2022/08/16 00:31:04;;;;;;;15.60;12.27;;;22.90;92.90;;;;;;5051396;28;20555;-54
2022/08/16 00:33:31;;;;;;;12.85;11.48;;;22.90;93.10;;;;;;5052593;28;20119;-53
2022/08/16 00:35:58;;;;;;;18.67;14.52;;;22.80;92.60;;;;;;5051786;28;20471;-50
2022/08/16 00:38:26;;;;;;;15.88;13.88;;;22.80;92.90;;;;;;5052445;28;20385;-51
2022/08/16 00:40:53;;;;;;;19.55;12.88;;;22.80;93.40;;;;;;5034624;28;20053;-52
2022/08/16 00:43:21;;;;;;;14.48;12.93;;;22.80;92.90;;;;;;5052620;28;20057;-50
2022/08/16 00:45:53;;;;;;;17.05;12.73;;;22.70;92.80;;;;;;5055979;28;20085;-49
2022/08/16 00:48:20;;;;;;;;;;;22.70;93.00;;;;;;5056845;28;20135;-43
2022/08/16 00:50:46;;;;;;;15.18;13.65;;;22.70;91.70;;;;;;5038350;28;19927;-49
2022/08/16 00:53:15;;;;;;;15.77;13.77;;;22.70;92.70;;;;;;5038535;28;20080;-49
2022/08/16 00:55:44;;;;;;;14.90;13.40;;;22.70;92.80;;;;;;5054981;28;20064;-48
2022/08/16 00:58:11;;;;;;;13.77;11.65;;;22.70;93.00;;;;;;5038643;28;20103;-49
2022/08/16 01:00:38;;;;;;;22.27;15.15;;;22.70;92.70;;;;;;5055985;28;20056;-51
2022/08/16 01:03:06;;;;;;;15.55;13.27;;;22.70;93.00;;;;;;5038367;28;20095;-49
2022/08/16 01:05:34;;;;;;;19.17;16.42;;;22.60;92.80;;;;;;5053870;28;20404;-49
2022/08/16 01:08:01;;;;;;;20.23;18.13;;;22.60;93.20;;;;;;5055819;28;20103;-48
2022/08/16 01:10:28;;;;;;;20.90;15.63;;;22.60;93.70;;;;;;5054255;28;20052;-46
2022/08/16 01:12:57;;;;;;;17.13;14.50;;;22.60;94.10;;;;;;5056072;28;20451;-44
2022/08/16 01:15:23;;;;;;;18.90;14.60;;;22.50;94.00;;;;;;5037676;28;20475;-48
2022/08/16 01:17:50;;;;;;;14.55;12.55;;;22.50;93.60;;;;;;5035904;28;20418;-51
2022/08/16 01:20:17;;;;;;;20.67;17.52;;;22.50;93.60;;;;;;5035664;28;20088;-47
2022/08/16 01:22:49;;;;;;;19.27;15.60;;;22.50;93.90;;;;;;5039133;28;20049;-43
2022/08/16 01:25:19;;;;;;;21.13;18.17;;;22.50;93.40;;;;;;5054831;28;20049;-44
2022/08/16 01:27:47;;;;;;;16.38;14.73;;;22.50;93.80;;;;;;5038113;28;20150;-47
2022/08/16 01:30:14;;;;;;;19.67;15.68;;;22.40;93.70;;;;;;5037646;28;20124;-47
2022/08/16 01:32:42;;;;;;;20.92;18.67;;;22.40;93.90;;;;;;5037361;28;20128;-47
2022/08/16 01:35:11;;;;;;;20.30;16.42;;;22.40;94.20;;;;;;5055305;28;20451;-45
2022/08/16 01:37:41;;;;;;;18.95;16.88;;;22.40;94.30;;;;;;5055218;28;20136;-47
2022/08/16 01:40:09;;;;;;;22.50;17.98;;;22.40;94.20;;;;;;5055471;28;20045;-48
2022/08/16 01:42:37;;;;;;;20.15;15.65;;;22.30;94.20;;;;;;5055356;28;20250;-48
2022/08/16 01:45:04;;;;;;;22.08;18.55;;;22.30;94.10;;;;;;5054438;28;20059;-45
2022/08/16 01:47:31;;;;;;;22.70;18.30;;;22.30;94.20;;;;;;5055237;28;20460;-46
2022/08/16 01:49:58;;;;;;;20.33;18.23;;;22.30;94.40;;;;;;5037390;28;20071;-47
2022/08/16 01:52:25;;;;;;;17.98;16.02;;;22.30;94.40;;;;;;5054861;28;20045;-46
2022/08/16 01:54:52;;;;;;;16.55;14.60;;;22.20;94.30;;;;;;5052545;28;20144;-42
2022/08/16 01:57:20;;;;;;;17.95;14.93;;;22.20;94.00;;;;;;5053685;28;20447;-47
2022/08/16 01:59:48;;;;;;;20.85;18.65;;;22.20;93.90;;;;;;5036355;28;20045;-48
2022/08/16 02:02:15;;;;;;;20.10;18.00;;;22.20;94.20;;;;;;5054789;28;20132;-50
2022/08/16 02:04:41;;;;;;;16.77;15.07;;;22.10;94.20;;;;;;5054125;28;20044;-48
2022/08/16 02:07:08;;;;;;;18.05;16.15;;;22.10;94.10;;;;;;5035710;28;20136;-45
2022/08/16 02:09:37;;;;;;;16.20;14.50;;;22.10;94.20;;;;;;5054272;28;20110;-52
2022/08/16 02:12:05;;;;;;;25.98;20.27;;;22.00;94.10;;;;;;5054662;28;20591;-48
2022/08/16 02:14:33;;;;;;;21.00;18.75;;;22.00;94.60;;;;;;5054090;28;20080;-49
2022/08/16 02:17:02;;;;;;;23.83;21.25;;;22.00;94.70;;;;;;5054711;28;20136;-51
2022/08/16 02:19:29;;;;;;;18.48;16.45;;;22.00;95.00;;;;;;5054489;28;20153;-48
2022/08/16 02:21:56;;;;;;;22.77;18.77;;;21.90;94.80;;;;;;5036868;28;20045;-51
2022/08/16 02:24:23;;;;;;;20.77;16.45;;;21.90;95.00;;;;;;5053921;28;20539;-46
2022/08/16 02:26:50;;;;;;;19.75;17.27;;;21.90;94.80;;;;;;5017104;28;20128;-47
2022/08/16 02:29:17;;;;;;;18.10;16.10;;;21.80;94.60;;;;;;5034435;28;20136;-51
2022/08/16 02:31:44;;;;;;;18.33;16.33;;;21.80;94.50;;;;;;5016692;28;20068;-52
2022/08/16 02:34:12;;;;;;;19.52;17.35;;;21.80;94.40;;;;;;5016847;28;20077;-51
2022/08/16 02:36:38;;;;;;;19.23;16.50;;;21.80;94.60;;;;;;5050168;28;20099;-50
2022/08/16 02:39:05;;;;;;;20.80;18.25;;;21.80;94.50;;;;;;5036790;28;20527;-48
2022/08/16 02:41:32;;;;;;;21.42;17.30;;;21.70;94.60;;;;;;5054035;28;20053;-48
2022/08/16 02:43:59;;;;;;;18.88;16.90;;;21.70;94.70;;;;;;5054104;28;20136;-51
2022/08/16 02:46:26;;;;;;;21.98;16.42;;;21.70;94.50;;;;;;5053138;28;20045;-51
2022/08/16 02:48:53;;;;;;;23.17;16.77;;;21.60;94.60;;;;;;5053949;28;20488;-52
2022/08/16 02:51:21;;;;;;;18.02;16.20;;;21.60;94.60;;;;;;5035975;28;20084;-51
2022/08/16 02:53:48;;;;;;;21.08;15.60;;;21.60;94.70;;;;;;5036505;28;20084;-48
2022/08/16 02:56:16;;;;;;;19.65;16.38;;;21.50;94.60;;;;;;5053160;28;20575;-49
2022/08/16 02:58:43;;;;;;;22.38;16.98;;;21.50;94.70;;;;;;5053924;28;20048;-49
2022/08/16 03:01:09;;;;;;;15.40;13.80;;;21.50;94.80;;;;;;5036423;28;20088;-53
2022/08/16 03:03:37;;;;;;;18.35;15.05;;;21.50;94.70;;;;;;5035859;28;20055;-51
2022/08/16 03:06:04;;;;;;;18.77;16.38;;;21.40;94.60;;;;;;5035279;28;20175;-50
2022/08/16 03:08:32;;;;;;;21.27;18.02;;;21.40;94.80;;;;;;5053287;28;20517;-50
2022/08/16 03:10:58;;;;;;;16.10;13.88;;;21.40;95.00;;;;;;5035718;28;20120;-47
2022/08/16 03:13:26;;;;;;;17.98;15.32;;;21.30;94.70;;;;;;5053538;28;20088;-53
2022/08/16 03:15:53;;;;;;;15.65;13.73;;;21.30;94.70;;;;;;5035722;28;20064;-53
2022/08/16 03:18:20;;;;;;;15.55;13.45;;;21.30;94.40;;;;;;5035168;28;20140;-52
2022/08/16 03:20:46;;;;;;;18.75;14.68;;;21.20;94.40;;;;;;5035958;28;20099;-52
2022/08/16 03:23:13;;;;;;;15.98;14.18;;;21.20;94.60;;;;;;5035935;28;20140;-51
2022/08/16 03:25:41;;;;;;;15.02;13.55;;;21.20;94.40;;;;;;5035697;28;20069;-49
2022/08/16 03:28:08;;;;;;;18.15;14.23;;;21.20;94.50;;;;;;5052434;28;20508;-49
2022/08/16 03:30:35;;;;;;;19.77;16.77;;;21.10;94.40;;;;;;5035504;28;20085;-51
2022/08/16 03:33:02;;;;;;;16.13;13.95;;;21.10;94.60;;;;;;5053120;28;20053;-53
2022/08/16 03:35:31;;;;;;;18.63;13.60;;;21.00;94.60;;;;;;5035386;28;20516;-48
2022/08/16 03:37:59;;;;;;;18.05;16.13;;;21.00;94.40;;;;;;5052461;28;20055;-53
2022/08/16 03:40:26;;;;;;;17.65;15.70;;;21.10;94.80;;;;;;5035295;28;20107;-47
2022/08/16 03:42:54;;;;;;;18.48;16.42;;;20.90;95.00;;;;;;5053147;28;20397;-51
2022/08/16 03:45:24;;;;;;;22.63;17.70;;;20.90;94.90;;;;;;5052946;28;20123;-52
2022/08/16 03:47:51;;;;;;;19.00;15.73;;;20.90;95.00;;;;;;5019889;28;20140;-52
2022/08/16 03:50:19;;;;;;;18.85;16.40;;;20.90;95.10;;;;;;5015308;28;20141;-53
2022/08/16 03:52:45;;;;;;;19.05;16.88;;;20.80;95.20;;;;;;5015717;28;20465;-49
2022/08/16 03:55:12;;;;;;;18.08;16.17;;;20.80;95.40;;;;;;5033021;28;20057;-51
2022/08/16 03:57:39;;;;;;;16.42;14.38;;;20.70;95.30;;;;;;5025320;28;20136;-51
2022/08/16 04:00:12;;;;;;;17.05;14.68;;;20.70;95.00;;;;;;5053199;28;20051;-51
2022/08/16 04:02:39;;;;;;;17.15;15.30;;;20.70;95.10;;;;;;5052500;28;20052;-52
2022/08/16 04:05:06;;;;;;;16.42;14.73;;;20.70;95.10;;;;;;5052857;28;20128;-50
2022/08/16 04:07:33;;;;;;;16.15;13.85;;;20.70;94.90;;;;;;5034345;28;20092;-48
2022/08/16 04:10:00;;;;;;;19.75;17.55;;;20.60;94.80;;;;;;5052774;28;20465;-50
2022/08/16 04:12:26;;;;;;;24.20;17.60;;;20.60;95.10;;;;;;5035143;28;20493;-51
2022/08/16 04:14:53;;;;;;;22.20;18.02;;;20.60;95.40;;;;;;5034849;28;20095;-48
2022/08/16 04:17:21;;;;;;;21.10;18.85;;;20.50;95.50;;;;;;5051925;28;20051;-51
2022/08/16 04:19:49;;;;;;;25.90;20.33;;;20.50;95.80;;;;;;5051565;28;20144;-49
2022/08/16 04:22:15;;;;;;;20.67;16.83;;;20.50;96.10;;;;;;5034644;28;20067;-50
2022/08/16 04:24:42;;;;;;;19.77;16.40;;;20.40;95.80;;;;;;5052373;28;20113;-49
2022/08/16 04:27:09;;;;;;;16.98;15.15;;;20.40;95.70;;;;;;5052481;28;20056;-47
2022/08/16 04:29:36;;;;;;;21.48;17.63;;;20.40;95.60;;;;;;5034150;28;20076;-49
2022/08/16 04:32:03;;;;;;;19.33;16.38;;;20.30;95.70;;;;;;5034727;28;20542;-46
2022/08/16 04:34:32;;;;;;;21.13;18.90;;;20.30;95.70;;;;;;5052493;28;20131;-44
2022/08/16 04:36:59;;;;;;;18.77;15.65;;;20.30;96.00;;;;;;5052287;28;20669;-50
2022/08/16 04:39:25;;;;;;;19.80;17.38;;;20.30;95.90;;;;;;5051608;28;20135;-50
2022/08/16 04:41:52;;;;;;;18.42;16.40;;;20.30;96.00;;;;;;5034720;28;20096;-51
2022/08/16 04:44:19;;;;;;;23.27;19.25;;;20.20;95.80;;;;;;5052342;28;20076;-51
2022/08/16 04:46:46;;;;;;;24.60;19.98;;;20.20;95.90;;;;;;5052096;28;20409;-45
2022/08/16 04:49:12;;;;;;;20.35;16.40;;;20.20;96.20;;;;;;5050707;28;20121;-47
2022/08/16 04:51:41;;;;;;;22.92;19.45;;;20.20;95.90;;;;;;5033810;28;20056;-50
2022/08/16 04:54:07;;;;;;;25.17;20.63;;;20.20;96.10;;;;;;5052250;28;20063;-49
2022/08/16 04:56:34;;;;;;;28.27;22.60;;;20.10;96.60;;;;;;5034089;28;20140;-45
2022/08/16 04:59:01;;;;;;;27.88;23.88;;;20.10;97.30;;;;;;5033908;28;20124;-50
2022/08/16 05:01:28;;;;;;;26.85;19.98;;;20.10;97.20;;;;;;5034412;28;20132;-45
2022/08/16 05:03:55;;;;;;;27.98;23.58;;;20.10;97.30;;;;;;5052019;28;20057;-51
2022/08/16 05:06:22;;;;;;;25.27;22.52;;;20.10;97.60;;;;;;5052257;28;20198;-49
2022/08/16 05:08:50;;;;;;;26.58;21.85;;;20.00;97.50;;;;;;5033596;28;20049;-50
2022/08/16 05:11:17;;;;;;;26.63;23.00;;;20.00;97.60;;;;;;5034203;28;20053;-53
2022/08/16 05:13:44;;;;;;;23.35;20.88;;;20.00;97.60;;;;;;5051928;28;20076;-49
2022/08/16 05:16:12;;;;;;;29.15;23.10;;;20.00;97.80;;;;;;5051911;28;20497;-52
2022/08/16 05:18:39;;;;;;;25.73;23.15;;;20.00;97.90;;;;;;5033899;28;20049;-51
2022/08/16 05:21:06;;;;;;;28.08;23.75;;;20.00;98.10;;;;;;5052113;28;20045;-52
2022/08/16 05:23:33;;;;;;;31.98;23.25;;;20.00;98.20;;;;;;5033618;28;20089;-46
2022/08/16 05:26:01;;;;;;;26.98;23.67;;;20.00;98.40;;;;;;5034334;28;20396;-51
2022/08/16 05:28:28;;;;;;;27.05;21.77;;;20.00;98.60;;;;;;5033979;28;20103;-49
2022/08/16 05:30:54;;;;;;;25.48;21.73;;;20.00;98.50;;;;;;5053557;28;20048;-52
2022/08/16 05:33:21;;;;;;;26.20;23.38;;;20.10;98.60;;;;;;5055848;28;20080;-50
2022/08/16 05:35:48;;;;;;;21.85;18.67;;;20.10;98.70;;;;;;5055582;28;20084;-51
2022/08/16 05:38:15;;;;;;;25.92;21.63;;;20.10;98.50;;;;;;5055577;28;20053;-45
2022/08/16 05:40:42;;;;;;;27.20;21.48;;;20.10;98.60;;;;;;5052101;28;20063;-47
2022/08/16 05:43:10;;;;;;;25.30;20.92;;;20.20;98.70;;;;;;5037634;28;20163;-45
2022/08/16 05:45:37;;;;;;;24.88;18.85;;;20.30;98.80;;;;;;5055119;28;20053;-50
2022/08/16 05:48:04;;;;;;;24.25;19.67;;;20.30;98.60;;;;;;5037667;28;20045;-49
2022/08/16 05:50:31;;;;;;;25.83;21.27;;;20.40;98.50;;;;;;5028706;28;20144;-48
2022/08/16 05:52:57;;;;;;;23.85;19.40;;;20.50;98.50;;;;;;5035398;28;20054;-49
2022/08/16 05:55:24;;;;;;;25.38;21.35;;;20.60;98.40;;;;;;5014313;28;20570;-48
2022/08/16 05:57:51;;;;;;;21.75;19.02;;;20.60;98.40;;;;;;5015199;28;20136;-50
2022/08/16 06:00:19;;;;;;;26.33;19.50;;;20.60;98.30;;;;;;5017288;28;20088;-47
2022/08/16 06:02:46;;;;;;;24.13;20.33;;;20.70;98.40;;;;;;5034992;28;20049;-48
2022/08/16 06:05:13;;;;;;;27.92;19.70;;;20.70;98.40;;;;;;5034843;28;20553;-44
2022/08/16 06:07:39;;;;;;;25.23;19.60;;;20.70;98.30;;;;;;5034082;28;20148;-48
2022/08/16 06:10:07;;;;;;;26.02;20.35;;;20.70;98.30;;;;;;5032889;28;20115;-48
2022/08/16 06:12:33;;;;;;;24.95;20.45;;;20.70;98.30;;;;;;5034008;28;20103;-48
2022/08/16 06:15:02;;;;;;;25.15;20.58;;;20.70;98.40;;;;;;5034898;28;20049;-49
2022/08/16 06:17:30;;;;;;;23.05;19.60;;;20.70;98.40;;;;;;5034295;28;20045;-45
2022/08/16 06:19:57;;;;;;;24.10;20.48;;;20.70;98.40;;;;;;5034767;28;20053;-51
2022/08/16 06:22:24;;;;;;;22.00;18.65;;;20.70;98.40;;;;;;5033824;28;20188;-48
2022/08/16 06:24:50;;;;;;;25.42;19.25;;;20.70;98.30;;;;;;5034374;28;20053;-45
2022/08/16 06:27:17;;;;;;;22.33;19.65;;;20.70;98.20;;;;;;5032662;28;20049;-46
2022/08/16 06:29:44;;;;;;;26.33;19.20;;;20.70;98.20;;;;;;5032941;28;20128;-52
2022/08/16 06:32:11;;;;;;;23.35;18.75;;;20.80;98.10;;;;;;5034567;28;20378;-46
2022/08/16 06:34:39;;;;;;;23.75;19.25;;;20.80;98.20;;;;;;5034462;28;20072;-50
2022/08/16 06:37:06;;;;;;;26.20;20.73;;;20.90;98.10;;;;;;5034353;28;20140;-50
2022/08/16 06:39:33;;;;;;;24.98;19.10;;;20.90;98.10;;;;;;5033740;28;20053;-47
2022/08/16 06:41:59;;;;;;;25.40;19.80;;;21.00;98.10;;;;;;5032495;28;20081;-49
2022/08/16 06:44:26;;;;;;;25.10;20.67;;;21.20;98.10;;;;;;5034385;28;20075;-47
2022/08/16 06:46:53;;;;;;;24.35;18.90;;;21.30;97.80;;;;;;5034171;28;20136;-46
2022/08/16 06:49:20;;;;;;;27.10;21.30;;;21.40;97.80;;;;;;5021293;28;20141;-46
2022/08/16 06:51:48;;;;;;;24.90;20.73;;;21.60;97.50;;;;;;5014130;28;20132;-48
2022/08/16 06:54:15;;;;;;;25.65;20.45;;;21.70;97.30;;;;;;5014269;28;20060;-49
2022/08/16 06:56:42;;;;;;;28.35;21.13;;;21.80;97.20;;;;;;5030703;28;20061;-47
2022/08/16 06:59:08;;;;;;;29.77;21.35;;;21.90;97.00;;;;;;5042041;28;20053;-44
2022/08/16 07:01:35;;;;;;;26.52;21.00;;;21.90;96.90;;;;;;5053755;28;20103;-46
2022/08/16 07:04:02;;;;;;;23.67;19.50;;;22.00;96.60;;;;;;5036238;28;20080;-47
2022/08/16 07:06:30;;;;;;;26.58;20.70;;;22.10;96.50;;;;;;5053656;28;20055;-46
2022/08/16 07:08:58;;;;;;;23.52;20.25;;;22.20;96.50;;;;;;5035121;28;20099;-46
2022/08/16 07:11:25;;;;;;;22.88;20.17;;;22.40;96.20;;;;;;5034771;28;20227;-47
2022/08/16 07:13:53;;;;;;;24.30;20.40;;;22.50;95.90;;;;;;5053797;28;20076;-43
2022/08/16 07:16:20;;;;;;;25.70;20.05;;;22.60;95.60;;;;;;5052311;28;20094;-47
2022/08/16 07:18:47;;;;;;;27.45;19.92;;;22.70;95.40;;;;;;5053598;28;20405;-46
2022/08/16 07:21:14;;;;;;;24.73;19.70;;;22.80;95.20;;;;;;5053459;28;20053;-48
2022/08/16 07:23:40;;;;;;;27.52;20.05;;;22.90;94.80;;;;;;5035550;28;20053;-48
2022/08/16 07:26:11;;;;;;;23.85;19.30;;;23.00;94.50;;;;;;5052868;28;20441;-49
2022/08/16 07:28:38;;;;;;;27.15;19.90;;;23.10;94.50;;;;;;5035940;28;20099;-51
2022/08/16 07:31:04;;;;;;;24.48;19.02;;;23.20;94.30;;;;;;5035631;28;20132;-50
2022/08/16 07:33:33;;;;;;;24.80;20.60;;;23.40;94.30;;;;;;5035390;28;20139;-49
2022/08/16 07:35:59;;;;;;;26.80;19.52;;;23.50;94.00;;;;;;5052062;28;20063;-44
2022/08/16 07:38:26;;;;;;;29.17;19.40;;;23.60;93.90;;;;;;5033217;28;20136;-49
2022/08/16 07:40:53;;;;;;;23.63;19.25;;;23.80;93.50;;;;;;5032969;28;20107;-45
2022/08/16 07:43:21;;;;;;;23.42;19.92;;;23.90;93.30;;;;;;5033200;28;20057;-46
2022/08/16 07:45:48;;;;;;;24.02;21.10;;;24.00;92.90;;;;;;5033115;28;20152;-51
2022/08/16 07:48:15;;;;;;;22.70;19.38;;;24.10;92.80;;;;;;5050346;28;20124;-44
2022/08/16 07:50:42;;;;;;;23.67;20.73;;;24.20;92.80;;;;;;5035280;28;20080;-46
2022/08/16 07:53:09;;;;;;;27.77;20.30;;;24.40;92.50;;;;;;5035176;28;20045;-46
2022/08/16 07:55:35;;;;;;;24.30;18.60;;;24.50;92.20;;;;;;5052732;28;20135;-46
2022/08/16 07:58:02;;;;;;;24.50;19.40;;;24.60;92.10;;;;;;5051963;28;20512;-49
2022/08/16 08:00:30;;;;;;;24.52;19.20;;;24.70;92.10;;;;;;5052974;28;20475;-48
2022/08/16 08:02:59;;;;;;;29.73;19.63;;;24.80;91.90;;;;;;5052015;28;20519;-48
2022/08/16 08:05:26;;;;;;;24.42;18.80;;;25.00;91.90;;;;;;5051750;28;20145;-48
2022/08/16 08:07:53;;;;;;;20.45;17.73;;;25.10;91.40;;;;;;5034863;28;20063;-48
2022/08/16 08:10:20;;;;;;;24.13;19.55;;;25.30;91.10;;;;;;5052642;28;20051;-50
2022/08/16 08:12:47;;;;;;;24.25;19.13;;;25.40;90.80;;;;;;5052717;28;20172;-49
2022/08/16 08:15:14;;;;;;;21.17;17.85;;;25.50;90.50;;;;;;5052104;28;20073;-49
2022/08/16 08:17:43;;;;;;;23.30;18.13;;;25.60;90.20;;;;;;5034975;28;20080;-48
2022/08/16 08:20:12;;;;;;;18.08;15.82;;;25.70;89.40;;;;;;5034808;28;20049;-48
2022/08/16 08:22:39;;;;;;;21.52;17.35;;;25.80;88.30;;;;;;5052488;28;20136;-47
2022/08/16 08:25:06;;;;;;;20.45;16.73;;;26.00;87.50;;;;;;5051546;28;20072;-50
2022/08/16 08:27:33;;;;;;;17.30;13.55;;;26.00;86.80;;;;;;5052582;28;20088;-47
2022/08/16 08:30:00;;;;;;;19.95;15.25;;;26.20;87.20;;;;;;5052547;28;20055;-47
2022/08/16 08:32:27;;;;;;;16.90;15.10;;;26.30;86.40;;;;;;5052365;28;20561;-46
2022/08/16 08:34:55;;;;;;;21.00;14.02;;;26.50;85.40;;;;;;5034273;28;20059;-47
2022/08/16 08:37:22;;;;;;;18.75;13.25;;;26.60;83.50;;;;;;5052421;28;20254;-46
2022/08/16 08:39:48;;;;;;;14.05;11.57;;;26.70;82.20;;;;;;5052175;28;20053;-45
2022/08/16 08:42:15;;;;;;;17.63;11.90;;;26.70;81.20;;;;;;5052515;28;20140;-45
2022/08/16 08:44:42;;;;;;;14.25;12.05;;;26.80;80.70;;;;;;5033613;28;20084;-46
2022/08/16 08:47:09;;;;;;;13.70;10.13;;;27.00;80.00;;;;;;5034765;28;20088;-47
2022/08/16 08:49:36;;;;;;;15.57;12.70;;;27.10;80.10;;;;;;5034358;28;20137;-46
2022/08/16 08:52:04;;;;;;;19.65;14.00;;;27.20;79.00;;;;;;5034468;28;20077;-50
2022/08/16 08:54:31;;;;;;;15.82;11.93;;;27.30;77.90;;;;;;5033694;28;20080;-51
2022/08/16 08:56:59;;;;;;;16.02;13.05;;;27.40;77.90;;;;;;5052446;28;20065;-45
2022/08/16 08:59:26;;;;;;;17.20;13.55;;;27.50;77.00;;;;;;5052348;28;20382;-47
2022/08/16 09:01:53;;;;;;;18.45;14.45;;;27.50;76.00;;;;;;5052018;28;20494;-47
2022/08/16 09:04:19;;;;;;;14.55;12.88;;;27.60;75.70;;;;;;5034571;28;20092;-46
2022/08/16 09:06:46;;;;;;;16.20;11.30;;;27.70;75.90;;;;;;5037471;28;20127;-52
2022/08/16 09:09:14;;;;;;;15.60;12.52;;;27.70;75.70;;;;;;5038224;28;20127;-50
2022/08/16 09:11:43;;;;;;;20.67;13.23;;;27.70;75.10;;;;;;5055880;28;20045;-48
2022/08/16 09:14:10;;;;;;;17.80;12.15;;;27.80;74.40;;;;;;5055938;28;20052;-51
2022/08/16 09:16:37;;;;;;;16.55;10.23;;;27.90;74.20;;;;;;5054676;28;20052;-51
2022/08/16 09:19:03;;;;;;;15.82;12.00;;;28.00;74.70;;;;;;5038414;28;20053;-47
2022/08/16 09:21:30;;;;;;;16.67;12.93;;;28.20;74.40;;;;;;5055811;28;20134;-48
2022/08/16 09:23:57;;;;;;;14.65;11.00;;;28.30;74.10;;;;;;5037938;28;20140;-44
2022/08/16 09:26:25;;;;;;;12.85;10.75;;;28.40;72.80;;;;;;5054284;28;20106;-47
2022/08/16 09:28:52;;;;;;;11.43;10.10;;;28.50;72.50;;;;;;5055034;28;20103;-47
2022/08/16 09:31:19;;;;;;;14.20;10.18;;;28.60;72.60;;;;;;5055522;28;20064;-48
2022/08/16 09:33:45;;;;;;;9.57;8.52;;;28.80;72.00;;;;;;5037866;28;20091;-48
2022/08/16 09:36:12;;;;;;;12.77;9.77;;;28.90;71.40;;;;;;5036378;28;20081;-48
2022/08/16 09:38:39;;;;;;;11.25;9.02;;;29.00;71.30;;;;;;5055099;28;20059;-50
2022/08/16 09:41:08;;;;;;;11.52;9.13;;;29.20;71.20;;;;;;5055287;28;20068;-48
2022/08/16 09:43:37;;;;;;;11.27;8.85;;;29.30;70.50;;;;;;5053977;28;20045;-47
2022/08/16 09:46:06;;;;;;;13.23;9.15;;;29.40;70.80;;;;;;5037719;28;20469;-50
2022/08/16 09:48:33;;;;;;;12.98;10.30;;;29.50;69.70;;;;;;5055160;28;20056;-49
2022/08/16 09:50:59;;;;;;;13.15;9.90;;;29.50;68.30;;;;;;5037706;28;20053;-47
2022/08/16 09:53:28;;;;;;;9.35;7.60;;;29.50;67.90;;;;;;5036377;28;20132;-47
2022/08/16 09:55:57;;;;;;;10.02;7.15;;;29.50;66.90;;;;;;5054771;28;20060;-52
2022/08/16 09:58:25;;;;;;;9.80;6.35;;;29.50;66.80;;;;;;5053419;28;20524;-48
2022/08/16 10:00:53;;;;;;;9.50;6.90;;;29.60;66.10;;;;;;5054848;28;20088;-51
2022/08/16 10:03:20;;;;;;;9.80;6.97;;;29.70;65.40;;;;;;5036248;28;20092;-45
2022/08/16 10:05:47;;;;;;;11.35;7.22;;;29.80;65.50;;;;;;5054672;28;20136;-48
2022/08/16 10:08:15;;;;;;;8.05;5.72;;;29.90;64.80;;;;;;5037477;28;20061;-46
2022/08/16 10:13:10;;;;;;;13.00;6.75;;;30.00;63.80;;;;;;5035555;28;20056;-48
2022/08/16 10:13:28;;;;;;;7.97;6.00;;;30.10;63.20;;;;;;5054500;28;20136;-43
2022/08/16 10:15:58;;;;;;;10.55;6.22;;;30.10;62.90;;;;;;5053979;28;20128;-50
2022/08/16 10:18:26;;;;;;;10.25;6.85;;;30.30;62.10;;;;;;5054253;28;20045;-46
2022/08/16 10:20:53;;;;;;;9.35;6.65;;;30.40;62.20;;;;;;5054044;28;20536;-50
2022/08/16 10:23:20;;;;;;;11.38;6.47;;;30.40;61.70;;;;;;5037028;28;20088;-50
2022/08/16 10:25:47;;;;;;;12.07;6.80;;;30.40;62.10;;;;;;5054530;28;20056;-50
2022/08/16 10:28:14;;;;;;;8.68;4.55;;;30.50;62.40;;;;;;5054486;28;20055;-49
2022/08/16 10:30:42;;;;;;;8.88;3.92;;;30.60;61.10;;;;;;5035967;28;20560;-50
2022/08/16 10:33:10;;;;;;;10.70;4.10;;;30.70;60.10;;;;;;5054027;28;20056;-47
2022/08/16 10:35:37;;;;;;;5.07;3.40;;;30.90;58.90;;;;;;5036839;28;20080;-49
2022/08/16 10:38:04;;;;;;;6.13;4.00;;;31.00;58.80;;;;;;5054417;28;20096;-52
2022/08/16 10:40:30;;;;;;;5.70;3.72;;;31.00;57.00;;;;;;5053394;28;20041;-50
2022/08/16 10:42:58;;;;;;;7.03;3.50;;;31.00;57.00;;;;;;5036615;28;20088;-47
2022/08/16 10:45:26;;;;;;;7.78;4.22;;;31.00;57.00;;;;;;5034788;28;20092;-49
2022/08/16 10:47:53;;;;;;;9.38;3.75;;;31.10;57.20;;;;;;5053943;28;20180;-50
2022/08/16 10:50:21;;;;;;;8.13;3.42;;;31.10;57.10;;;;;;5053226;28;20045;-48
2022/08/16 10:52:48;;;;;;;7.97;3.40;;;31.30;56.60;;;;;;5053961;28;20160;-46
2022/08/16 10:55:15;;;;;;;4.75;2.83;;;31.50;55.90;;;;;;5053863;28;20095;-49
2022/08/16 10:57:41;;;;;;;4.60;3.10;;;31.60;55.90;;;;;;5036386;28;20448;-51
2022/08/16 11:00:13;;;;;;;5.57;3.00;;;31.60;55.10;;;;;;5035287;28;20124;-50
2022/08/16 11:02:40;;;;;;;7.10;2.97;;;31.70;54.30;;;;;;5053022;28;20053;-47
2022/08/16 11:05:11;;;;;;;10.85;3.58;;;31.80;54.50;;;;;;5036309;28;20060;-36
2022/08/16 11:07:39;;;;;;;5.03;2.88;;;31.90;53.40;;;;;;5036370;28;20088;-46
2022/08/16 11:10:07;;;;;;;5.22;2.55;;;31.90;54.00;;;;;;5052916;28;20496;-50
2022/08/16 11:12:33;;;;;;;5.95;2.75;;;32.00;53.70;;;;;;5034100;28;20553;-47
2022/08/16 11:15:00;;;;;;;4.40;2.72;;;32.10;53.20;;;;;;5035906;28;20080;-49
2022/08/16 11:17:27;;;;;;;5.05;2.95;;;32.30;53.00;;;;;;5035988;28;20053;-46
2022/08/16 11:19:54;;;;;;;5.30;3.15;;;32.40;53.00;;;;;;5036067;28;20140;-50
2022/08/16 11:22:20;;;;;;;3.70;2.80;;;32.40;52.80;;;;;;5053098;28;20548;-51
2022/08/16 11:24:48;;;;;;;4.60;2.92;;;32.50;52.50;;;;;;5035742;28;20053;-51
2022/08/16 11:27:17;;;;;;;6.03;2.70;;;32.60;52.20;;;;;;5052961;28;20132;-49
2022/08/16 11:29:44;;;;;;;4.93;2.83;;;32.80;52.80;;;;;;5035670;28;20091;-49
2022/08/16 11:32:11;;;;;;;5.90;2.50;;;32.80;51.90;;;;;;5033422;28;20096;-49
2022/08/16 11:34:38;;;;;;;5.40;2.90;;;32.90;51.40;;;;;;5053316;28;20076;-49
2022/08/16 11:37:05;;;;;;;4.45;2.65;;;33.00;51.20;;;;;;5035713;28;20140;-49
2022/08/16 11:39:32;;;;;;;5.20;3.25;;;33.00;51.30;;;;;;5035513;28;20085;-50
2022/08/16 11:42:00;;;;;;;8.35;3.13;;;33.10;51.20;;;;;;5052506;28;20500;-48
2022/08/16 11:44:27;;;;;;;5.80;2.95;;;33.20;51.30;;;;;;5035269;28;20041;-48
2022/08/16 11:46:54;;;;;;;7.47;3.05;;;33.20;50.90;;;;;;5052884;28;20092;-50
2022/08/16 11:49:20;;;;;;;6.03;2.72;;;33.30;51.40;;;;;;5035425;28;20068;-49
2022/08/16 11:51:48;;;;;;;7.80;3.30;;;33.40;51.00;;;;;;5052420;28;20451;-49
2022/08/16 11:54:15;;;;;;;8.13;3.03;;;33.50;51.00;;;;;;5035006;28;20044;-52
2022/08/16 11:56:42;;;;;;;7.78;3.33;;;33.60;52.20;;;;;;5052951;28;20053;-49
2022/08/16 11:59:10;;;;;;;4.53;2.88;;;33.60;51.10;;;;;;5034970;28;20132;-46
2022/08/16 12:01:37;;;;;;;8.20;3.20;;;33.70;49.40;;;;;;5034546;28;20046;-46
2022/08/16 12:04:04;;;;;;;7.28;2.90;;;33.60;49.00;;;;;;5035085;28;20080;-50
2022/08/16 12:06:31;;;;;;;10.57;3.40;;;33.60;49.90;;;;;;5053137;28;20136;-42
2022/08/16 12:08:59;;;;;;;11.40;3.30;;;33.70;49.90;;;;;;5035232;28;20044;-46
2022/08/16 12:11:25;;;;;;;6.85;2.80;;;33.80;49.70;;;;;;5034172;28;20048;-47
2022/08/16 12:13:52;;;;;;;6.82;3.13;;;33.80;49.00;;;;;;5052508;28;20107;-47
2022/08/16 12:16:21;;;;;;;4.97;2.88;;;33.80;48.60;;;;;;5052658;28;20048;-51
2022/08/16 12:18:48;;;;;;;8.82;3.92;;;33.90;49.00;;;;;;5052689;28;20045;-48
2022/08/16 12:21:15;;;;;;;7.13;3.58;;;33.90;49.50;;;;;;5034117;28;20041;-48
2022/08/16 12:23:42;;;;;;;5.53;3.85;;;34.00;49.50;;;;;;5034958;28;20057;-42
2022/08/16 12:26:09;;;;;;;7.75;3.53;;;34.10;49.90;;;;;;5052404;28;20045;-43
2022/08/16 12:28:35;;;;;;;4.70;3.40;;;34.20;50.30;;;;;;5052352;28;20132;-45
2022/08/16 12:31:03;;;;;;;8.30;4.05;;;34.30;50.50;;;;;;5052655;28;20080;-49